createdAt,value
2019-03-04T00:00:43.009Z,40.80
2019-03-04T00:03:12.852Z,40.70
2019-03-04T00:05:42.398Z,40.80
2019-03-04T00:08:11.958Z,40.80
2019-03-04T00:10:41.571Z,40.70
2019-03-04T00:13:11.083Z,40.70
2019-03-04T00:15:40.632Z,40.20
2019-03-04T00:18:10.145Z,40.70
2019-03-04T00:20:39.674Z,40.60
2019-03-04T00:23:09.189Z,40.70
2019-03-04T00:25:39.359Z,40.60
2019-03-04T00:28:10.609Z,40.70
2019-03-04T00:30:40.106Z,40.60
2019-03-04T00:33:10.736Z,40.70
2019-03-04T00:35:40.304Z,40.60
2019-03-04T00:38:09.839Z,40.70
2019-03-04T00:40:39.497Z,40.60
2019-03-04T00:43:09.025Z,40.60
2019-03-04T00:45:38.548Z,40.60
2019-03-04T00:48:08.112Z,40.60
2019-03-04T00:50:39.055Z,40.70
2019-03-04T00:53:08.583Z,40.70
2019-03-04T00:55:38.104Z,40.70
2019-03-04T00:58:07.643Z,40.70
2019-03-04T01:00:37.230Z,40.80
2019-03-04T01:03:07.148Z,40.80
2019-03-04T01:05:36.742Z,40.80
2019-03-04T01:08:06.387Z,40.80
2019-03-04T01:10:35.944Z,40.80
2019-03-04T01:13:06.474Z,40.20
2019-03-04T01:15:36.068Z,40.70
2019-03-04T01:18:05.718Z,40.70
2019-03-04T01:20:36.784Z,40.70
2019-03-04T01:23:06.332Z,40.70
2019-03-04T01:25:36.948Z,40.70
2019-03-04T01:28:08.273Z,40.60
2019-03-04T01:30:37.876Z,40.60
2019-03-04T01:33:07.417Z,40.60
2019-03-04T01:35:36.924Z,40.60
2019-03-04T01:38:08.380Z,40.60
2019-03-04T01:40:38.007Z,40.60
2019-03-04T01:43:07.636Z,40.60
2019-03-04T01:45:37.180Z,40.60
2019-03-04T01:48:09.603Z,40.60
2019-03-04T01:50:39.148Z,40.50
2019-03-04T01:53:08.747Z,40.50
2019-03-04T01:55:38.263Z,40.50
2019-03-04T01:58:07.905Z,40.50
2019-03-04T02:00:37.426Z,40.50
2019-03-04T02:03:09.750Z,40.50
2019-03-04T02:05:39.260Z,40.40
2019-03-04T02:08:08.792Z,40.50
2019-03-04T02:10:39.777Z,40.50
2019-03-04T02:13:09.283Z,40.50
2019-03-04T02:15:38.803Z,40.50
2019-03-04T02:18:08.329Z,40.50
2019-03-04T02:20:37.929Z,40.40
2019-03-04T02:23:07.428Z,40.50
2019-03-04T02:26:33.425Z,40.50
2019-03-04T02:29:03.020Z,40.50
2019-03-04T02:31:32.526Z,40.50
2019-03-04T02:34:02.023Z,40.40
2019-03-04T02:36:31.678Z,40.40
2019-03-04T02:39:01.302Z,40.50
2019-03-04T02:41:32.597Z,40.40
2019-03-04T02:44:03.202Z,40.30
2019-03-04T02:46:32.704Z,40.40
2019-03-04T02:49:02.216Z,40.50
2019-03-04T02:51:32.837Z,40.40
2019-03-04T02:54:03.378Z,40.40
2019-03-04T02:56:32.923Z,40.40
2019-03-04T02:59:02.529Z,40.40
2019-03-04T03:01:32.106Z,40.40
2019-03-04T03:04:01.691Z,40.40
2019-03-04T03:06:31.249Z,40.40
2019-03-04T03:09:01.937Z,40.40
2019-03-04T03:11:31.439Z,41.00
2019-03-04T03:14:03.544Z,40.40
2019-03-04T03:16:33.115Z,40.40
2019-03-04T03:19:02.707Z,40.90
2019-03-04T03:21:32.231Z,40.30
2019-03-04T03:24:01.792Z,40.30
2019-03-04T03:26:31.336Z,40.30
2019-03-04T03:29:00.907Z,40.40
2019-03-04T03:31:30.450Z,40.30
2019-03-04T03:34:00.110Z,40.40
2019-03-04T03:36:29.620Z,40.30
2019-03-04T03:38:59.184Z,40.40
2019-03-04T03:41:28.799Z,40.10
2019-03-04T03:43:58.342Z,40.30
2019-03-04T03:46:27.877Z,40.30
2019-03-04T03:48:57.374Z,40.30
2019-03-04T03:51:26.873Z,40.40
2019-03-04T03:53:56.432Z,40.30
2019-03-04T03:56:26.236Z,40.30
2019-03-04T03:58:55.892Z,40.30
2019-03-04T04:01:25.409Z,40.30
2019-03-04T04:03:54.965Z,40.30
2019-03-04T04:06:24.577Z,40.30
2019-03-04T04:08:54.214Z,40.30
2019-03-04T04:11:23.717Z,40.30
2019-03-04T04:13:53.236Z,40.30
2019-03-04T04:16:22.816Z,40.20
2019-03-04T04:18:52.443Z,40.30
2019-03-04T04:21:21.991Z,40.20
2019-03-04T04:23:52.728Z,40.60
2019-03-04T04:26:23.565Z,40.20
2019-03-04T04:29:00.629Z,40.20
2019-03-04T04:31:30.137Z,40.20
2019-03-04T04:33:59.689Z,40.30
2019-03-04T04:36:30.492Z,40.30
2019-03-04T04:39:01.600Z,40.30
2019-03-04T04:41:33.186Z,40.30
2019-03-04T04:44:02.580Z,40.30
2019-03-04T04:46:49.456Z,40.20
2019-03-04T04:49:19.044Z,40.30
2019-03-04T04:51:48.704Z,40.20
2019-03-04T04:54:18.204Z,40.20
2019-03-04T04:56:47.823Z,40.20
2019-03-04T04:59:17.349Z,40.30
2019-03-04T05:01:46.958Z,40.20
2019-03-04T05:04:16.553Z,40.20
2019-03-04T05:06:46.205Z,40.30
2019-03-04T05:09:15.698Z,40.30
2019-03-04T05:11:45.285Z,40.20
2019-03-04T05:14:14.913Z,40.20
2019-03-04T05:16:45.636Z,40.30
2019-03-04T05:19:16.733Z,40.30
2019-03-04T05:21:46.249Z,40.20
2019-03-04T05:24:15.776Z,40.30
2019-03-04T05:26:45.311Z,40.30
2019-03-04T05:29:16.616Z,40.30
2019-03-04T05:31:46.175Z,40.40
2019-03-04T05:34:15.768Z,40.60
2019-03-04T05:36:45.322Z,40.60
2019-03-04T05:39:16.767Z,40.70
2019-03-04T05:41:46.292Z,40.80
2019-03-04T05:44:15.812Z,40.90
2019-03-04T05:46:45.360Z,41.20
2019-03-04T05:49:14.973Z,41.50
2019-03-04T05:51:44.730Z,41.70
2019-03-04T05:54:14.235Z,41.80
2019-03-04T05:56:45.676Z,42.00
2019-03-04T05:59:19.799Z,42.20
2019-03-04T06:02:05.629Z,42.30
2019-03-04T06:04:35.203Z,42.10
2019-03-04T06:07:11.148Z,42.10
2019-03-04T06:09:40.748Z,42.00
2019-03-04T06:12:10.253Z,42.10
2019-03-04T06:14:39.776Z,42.00
2019-03-04T06:17:09.288Z,41.90
2019-03-04T06:19:38.832Z,41.80
2019-03-04T06:22:08.424Z,41.80
2019-03-04T06:24:38.979Z,41.70
2019-03-04T06:27:08.597Z,41.70
2019-03-04T06:29:39.132Z,41.70
2019-03-04T06:32:08.624Z,41.60
2019-03-04T06:34:38.243Z,41.50
2019-03-04T06:37:11.193Z,41.50
2019-03-04T06:39:40.767Z,41.50
2019-03-04T06:42:10.312Z,42.00
2019-03-04T06:44:41.668Z,41.40
2019-03-04T06:47:11.230Z,41.40
2019-03-04T06:49:40.790Z,41.30
2019-03-04T06:52:10.265Z,41.30
2019-03-04T06:55:21.785Z,41.20
2019-03-04T06:57:52.699Z,41.20
2019-03-04T07:00:41.864Z,41.20
2019-03-04T07:03:29.389Z,41.10
2019-03-04T07:05:59.031Z,41.00
2019-03-04T07:09:01.088Z,41.00
2019-03-04T07:11:31.347Z,41.60
2019-03-04T07:14:00.860Z,41.00
2019-03-04T07:16:32.054Z,40.90
2019-03-04T07:19:03.397Z,40.90
2019-03-04T07:21:34.111Z,40.80
2019-03-04T07:24:03.648Z,40.80
2019-03-04T07:26:34.566Z,40.70
2019-03-04T07:29:04.400Z,40.70
2019-03-04T07:31:33.909Z,40.70
2019-03-04T07:34:03.512Z,40.60
2019-03-04T07:36:33.147Z,40.60
2019-03-04T07:39:15.227Z,40.60
2019-03-04T07:41:46.461Z,40.50
2019-03-04T07:44:15.968Z,40.50
2019-03-04T07:46:46.519Z,40.50
2019-03-04T07:49:17.855Z,40.40
2019-03-04T07:51:47.911Z,40.40
2019-03-04T07:54:17.380Z,40.30
2019-03-04T07:56:46.957Z,40.30
2019-03-04T07:59:16.494Z,40.30
2019-03-04T08:01:46.159Z,40.30
2019-03-04T08:04:15.695Z,40.30
2019-03-04T08:06:46.987Z,40.30
2019-03-04T08:10:12.345Z,40.30
2019-03-04T08:13:00.748Z,40.30
2019-03-04T08:15:36.782Z,40.30
2019-03-04T08:18:06.455Z,40.30
2019-03-04T08:20:36.128Z,40.30
2019-03-04T08:23:05.616Z,40.30
2019-03-04T08:25:35.363Z,40.20
2019-03-04T08:28:06.782Z,40.10
2019-03-04T08:30:36.620Z,40.10
2019-03-04T08:33:06.232Z,40.10
2019-03-04T08:35:35.788Z,40.00
2019-03-04T08:38:05.593Z,40.10
2019-03-04T08:40:35.770Z,40.00
2019-03-04T08:43:05.310Z,39.90
2019-03-04T08:45:34.832Z,39.90
2019-03-04T08:48:04.561Z,39.80
2019-03-04T08:50:34.176Z,39.80
2019-03-04T08:53:03.789Z,39.80
2019-03-04T08:55:33.331Z,39.80
2019-03-04T08:58:02.940Z,39.70
2019-03-04T09:00:32.968Z,39.80
2019-03-04T09:03:03.795Z,39.70
2019-03-04T09:05:33.328Z,39.90
2019-03-04T09:08:04.131Z,39.90
2019-03-04T09:10:33.737Z,40.00
2019-03-04T09:13:03.349Z,40.00
2019-03-04T09:15:34.486Z,40.00
2019-03-04T09:18:05.248Z,40.00
2019-03-04T09:20:35.264Z,39.90
2019-03-04T09:23:07.869Z,39.80
2019-03-04T09:25:43.621Z,39.80
2019-03-04T09:28:13.313Z,39.00
2019-03-04T09:30:42.993Z,39.30
2019-03-04T09:33:12.693Z,39.50
2019-03-04T09:35:42.318Z,39.30
2019-03-04T09:38:12.723Z,39.00
2019-03-04T09:40:54.845Z,38.70
2019-03-04T09:43:33.586Z,38.70
2019-03-04T09:46:08.919Z,38.50
2019-03-04T09:48:55.025Z,38.50
2019-03-04T09:51:31.076Z,38.30
2019-03-04T09:54:04.880Z,38.20
2019-03-04T09:56:40.937Z,38.30
2019-03-04T09:59:18.528Z,38.30
2019-03-04T10:02:10.642Z,38.10
2019-03-04T10:05:41.063Z,38.10
2019-03-04T10:08:36.319Z,38.10
2019-03-04T10:11:43.269Z,38.10
2019-03-04T10:14:47.181Z,38.10
2019-03-04T10:17:52.708Z,38.00
2019-03-04T10:21:04.449Z,37.90
2019-03-04T10:24:09.530Z,38.20
2019-03-04T10:27:23.167Z,38.10
2019-03-04T10:30:28.234Z,38.00
2019-03-04T10:33:31.296Z,38.00
2019-03-04T10:36:22.520Z,37.80
2019-03-04T10:39:27.933Z,37.60
2019-03-04T10:42:52.859Z,37.40
2019-03-04T10:46:09.459Z,37.40
2019-03-04T10:48:38.964Z,37.50
2019-03-04T10:51:08.582Z,37.60
2019-03-04T10:53:38.125Z,37.50
2019-03-04T10:56:07.640Z,37.50
2019-03-04T10:58:37.163Z,37.50
2019-03-04T11:01:07.921Z,37.50
2019-03-04T11:03:37.428Z,37.60
2019-03-04T11:06:07.232Z,37.60
2019-03-04T11:08:36.777Z,37.60
2019-03-04T11:11:06.328Z,37.60
2019-03-04T11:13:35.873Z,37.60
2019-03-04T11:16:05.553Z,37.70
2019-03-04T11:18:35.116Z,37.70
2019-03-04T11:21:04.748Z,37.80
2019-03-04T11:23:34.272Z,37.70
2019-03-04T11:26:03.852Z,37.70
2019-03-04T11:30:08.778Z,37.80
2019-03-04T11:32:38.428Z,37.70
2019-03-04T11:35:09.307Z,37.80
2019-03-04T11:37:38.993Z,37.80
2019-03-04T11:42:19.875Z,37.90
2019-03-04T11:44:49.404Z,37.90
2019-03-04T11:47:22.822Z,37.90
2019-03-04T11:49:53.466Z,37.80
2019-03-04T11:52:23.672Z,37.80
2019-03-04T11:54:53.233Z,37.80
2019-03-04T11:57:22.864Z,37.70
2019-03-04T11:59:52.499Z,37.70
2019-03-04T12:02:24.302Z,37.60
2019-03-04T12:04:54.997Z,37.60
2019-03-04T12:07:24.651Z,37.60
2019-03-04T12:09:54.355Z,37.60
2019-03-04T12:12:23.905Z,37.60
2019-03-04T12:14:53.532Z,37.60
2019-03-04T12:17:24.206Z,37.50
2019-03-04T12:19:53.747Z,37.50
2019-03-04T12:22:23.511Z,37.60
2019-03-04T12:24:53.238Z,37.50
2019-03-04T12:27:22.752Z,37.50
2019-03-04T12:29:52.544Z,37.60
2019-03-04T12:32:46.876Z,37.60
2019-03-04T12:35:17.297Z,37.50
2019-03-04T12:37:47.150Z,37.40
2019-03-04T12:40:17.933Z,37.40
2019-03-04T12:42:47.428Z,37.40
2019-03-04T12:45:18.562Z,37.50
2019-03-04T12:47:48.098Z,37.50
2019-03-04T12:50:20.053Z,37.40
2019-03-04T12:52:49.563Z,37.40
2019-03-04T12:55:19.107Z,37.50
2019-03-04T12:57:48.892Z,37.40
2019-03-04T13:00:22.614Z,37.30
2019-03-04T13:02:57.630Z,37.30
2019-03-04T13:05:23.436Z,37.20
2019-03-04T13:07:53.038Z,37.20
2019-03-04T13:10:26.653Z,37.20
2019-03-04T13:12:56.276Z,37.20
2019-03-04T13:15:26.031Z,37.10
2019-03-04T13:17:55.631Z,37.10
2019-03-04T13:20:25.367Z,37.10
2019-03-04T13:22:57.826Z,37.10
2019-03-04T13:25:27.394Z,37.70
2019-03-04T13:27:57.037Z,37.10
2019-03-04T13:30:27.786Z,37.00
2019-03-04T13:32:58.504Z,37.00
2019-03-04T13:35:28.184Z,36.80
2019-03-04T13:37:57.710Z,36.80
2019-03-04T13:40:27.485Z,36.60
2019-03-04T13:42:56.994Z,36.50
2019-03-04T13:45:28.294Z,36.40
2019-03-04T13:47:58.987Z,36.20
2019-03-04T13:50:28.774Z,36.00
2019-03-04T13:52:58.365Z,36.00
2019-03-04T13:55:28.196Z,35.80
2019-03-04T13:57:57.923Z,35.70
2019-03-04T14:00:28.930Z,35.60
2019-03-04T14:02:58.500Z,35.50
2019-03-04T14:05:28.324Z,35.50
2019-03-04T14:07:58.004Z,35.30
2019-03-04T14:10:28.230Z,35.20
2019-03-04T14:12:57.881Z,35.10
2019-03-04T14:15:30.511Z,35.10
2019-03-04T14:18:00.386Z,35.10
2019-03-04T14:20:30.347Z,35.00
2019-03-04T14:22:59.952Z,35.00
2019-03-04T14:25:31.294Z,34.90
2019-03-04T14:28:01.155Z,34.90
2019-03-04T14:30:30.943Z,34.90
2019-03-04T14:33:00.485Z,34.80
2019-03-04T14:35:30.183Z,34.90
2019-03-04T14:37:59.725Z,34.90
2019-03-04T14:40:29.259Z,35.00
2019-03-04T14:42:58.918Z,35.10
2019-03-04T14:45:28.681Z,35.10
2019-03-04T14:48:00.044Z,35.10
2019-03-04T14:50:29.683Z,35.10
2019-03-04T14:52:59.293Z,35.20
2019-03-04T14:55:28.812Z,35.30
2019-03-04T14:57:58.404Z,35.90
2019-03-04T15:00:36.006Z,35.30
2019-03-04T15:03:05.813Z,35.40
2019-03-04T15:05:35.607Z,35.40
2019-03-04T15:08:05.241Z,35.30
2019-03-04T15:10:34.870Z,35.00
2019-03-04T15:13:05.847Z,34.80
2019-03-04T15:15:35.435Z,34.50
2019-03-04T15:18:06.133Z,34.20
2019-03-04T15:20:37.175Z,34.10
2019-03-04T15:23:06.713Z,34.10
2019-03-04T15:25:36.630Z,33.90
2019-03-04T15:28:11.294Z,33.80
2019-03-04T15:30:41.748Z,33.70
2019-03-04T15:33:17.968Z,33.70
2019-03-04T15:35:43.578Z,33.60
2019-03-04T15:38:14.393Z,33.60
2019-03-04T15:40:44.083Z,33.50
2019-03-04T15:43:15.071Z,33.50
2019-03-04T15:45:47.414Z,33.50
2019-03-04T15:48:17.659Z,33.40
2019-03-04T15:50:47.331Z,33.40
2019-03-04T15:53:17.862Z,33.40
2019-03-04T15:55:48.389Z,33.50
2019-03-04T15:58:17.945Z,33.30
2019-03-04T16:00:47.559Z,33.30
2019-03-04T16:03:17.210Z,33.30
2019-03-04T16:05:46.928Z,33.40
2019-03-04T16:08:16.547Z,33.20
2019-03-04T16:10:46.310Z,33.10
2019-03-04T16:13:18.818Z,33.00
2019-03-04T16:15:48.693Z,32.90
2019-03-04T16:18:19.515Z,32.80
2019-03-04T16:20:52.292Z,32.80
2019-03-04T16:23:21.923Z,32.60
2019-03-04T16:25:51.552Z,32.40
2019-03-04T16:28:26.592Z,32.40
2019-03-04T16:30:56.104Z,32.30
2019-03-04T16:33:26.251Z,32.20
2019-03-04T16:35:55.795Z,32.50
2019-03-04T16:38:25.545Z,32.40
2019-03-04T16:40:55.097Z,32.40
2019-03-04T16:43:24.608Z,32.40
2019-03-04T16:45:54.130Z,32.30
2019-03-04T16:48:23.642Z,32.30
2019-03-04T16:50:54.350Z,32.20
2019-03-04T16:53:24.372Z,32.10
2019-03-04T16:55:53.945Z,32.10
2019-03-04T16:58:23.574Z,32.00
2019-03-04T17:00:53.196Z,32.00
2019-03-04T17:03:23.915Z,31.90
2019-03-04T17:05:53.447Z,31.70
2019-03-04T17:08:22.975Z,31.80
2019-03-04T17:10:53.976Z,31.70
2019-03-04T17:13:23.613Z,31.80
2019-03-04T17:15:53.239Z,31.80
2019-03-04T17:18:22.788Z,31.80
2019-03-04T17:20:52.320Z,31.80
2019-03-04T17:23:21.833Z,31.80
2019-03-04T17:25:51.708Z,31.80
2019-03-04T17:28:21.354Z,31.70
2019-03-04T17:30:52.091Z,31.60
2019-03-04T17:33:21.807Z,31.60
2019-03-04T17:35:51.430Z,31.50
2019-03-04T17:38:21.014Z,31.40
2019-03-04T17:40:50.565Z,31.40
2019-03-04T17:43:21.499Z,31.30
2019-03-04T17:45:52.116Z,31.10
2019-03-04T17:48:21.695Z,31.10
2019-03-04T17:50:51.409Z,31.00
2019-03-04T17:53:21.020Z,31.00
2019-03-04T17:55:50.680Z,30.90
2019-03-04T17:58:20.367Z,30.80
2019-03-04T18:00:54.276Z,30.80
2019-03-04T18:03:23.812Z,30.70
2019-03-04T18:05:54.303Z,30.50
2019-03-04T18:08:23.941Z,30.50
2019-03-04T18:10:53.714Z,30.50
2019-03-04T18:13:23.301Z,30.60
2019-03-04T18:15:53.137Z,30.60
2019-03-04T18:18:22.724Z,30.60
2019-03-04T18:20:52.386Z,30.70
2019-03-04T18:23:23.917Z,30.80
2019-03-04T18:26:01.958Z,30.90
2019-03-04T18:29:15.795Z,30.90
2019-03-04T18:32:10.091Z,30.90
2019-03-04T18:35:12.330Z,30.90
2019-03-04T18:38:37.951Z,30.80
2019-03-04T18:41:51.042Z,30.90
2019-03-04T18:44:55.289Z,30.90
2019-03-04T18:47:55.075Z,30.90
2019-03-04T18:50:25.788Z,30.80
2019-03-04T18:52:55.480Z,30.80
2019-03-04T18:55:25.044Z,30.80
2019-03-04T18:57:54.583Z,30.80
2019-03-04T19:00:26.041Z,30.60
2019-03-04T19:02:55.653Z,31.40
2019-03-04T19:05:25.560Z,30.80
2019-03-04T19:07:55.118Z,30.80
2019-03-04T19:10:24.906Z,30.80
2019-03-04T19:12:54.458Z,30.70
2019-03-04T19:15:25.055Z,30.60
2019-03-04T19:17:57.055Z,30.60
2019-03-04T19:20:26.747Z,30.60
2019-03-04T19:22:56.814Z,31.10
2019-03-04T19:25:27.643Z,30.50
2019-03-04T19:27:57.245Z,30.60
2019-03-04T19:30:26.742Z,30.80
2019-03-04T19:32:56.300Z,30.60
2019-03-04T19:35:26.254Z,30.50
2019-03-04T19:37:55.799Z,30.50
2019-03-04T19:40:27.130Z,30.40
2019-03-04T19:42:56.669Z,30.50
2019-03-04T19:45:26.208Z,30.50
2019-03-04T19:47:55.762Z,30.50
2019-03-04T19:50:25.442Z,30.50
2019-03-04T19:52:56.190Z,31.10
2019-03-04T19:55:25.687Z,30.40
2019-03-04T19:57:55.639Z,30.50
2019-03-04T20:00:26.844Z,30.50
2019-03-04T20:02:56.651Z,30.50
2019-03-04T20:05:26.731Z,30.50
2019-03-04T20:07:56.365Z,30.50
2019-03-04T20:10:26.286Z,30.60
2019-03-04T20:12:55.795Z,30.70
2019-03-04T20:15:25.586Z,30.80
2019-03-04T20:18:45.955Z,30.80
2019-03-04T20:21:15.487Z,31.20
2019-03-04T20:23:45.182Z,31.30
2019-03-04T20:26:14.695Z,31.50
2019-03-04T20:28:44.231Z,31.70
2019-03-04T20:31:13.826Z,31.90
2019-03-04T20:33:45.135Z,32.10
2019-03-04T20:36:14.806Z,32.20
2019-03-04T20:38:46.478Z,32.40
2019-03-04T20:41:16.046Z,32.50
2019-03-04T20:43:45.603Z,32.80
2019-03-04T20:46:15.216Z,32.90
2019-03-04T20:48:44.949Z,33.10
2019-03-04T20:51:14.584Z,33.30
2019-03-04T20:53:44.103Z,33.30
2019-03-04T20:56:13.914Z,33.40
2019-03-04T20:58:43.411Z,33.50
2019-03-04T21:01:13.702Z,33.70
2019-03-04T21:03:43.199Z,33.80
2019-03-04T21:06:12.812Z,33.90
2019-03-04T21:08:42.472Z,34.00
2019-03-04T21:11:12.111Z,34.00
2019-03-04T21:13:42.636Z,34.10
2019-03-04T21:16:12.182Z,34.30
2019-03-04T21:18:41.691Z,34.20
2019-03-04T21:21:11.214Z,34.30
2019-03-04T21:23:42.289Z,34.30
2019-03-04T21:26:36.404Z,34.30
2019-03-04T21:29:51.773Z,34.30
2019-03-04T21:32:57.607Z,34.40
2019-03-04T21:36:03.667Z,34.50
2019-03-04T21:38:34.528Z,34.40
2019-03-04T21:41:31.708Z,34.50
2019-03-04T21:44:16.626Z,34.60
2019-03-04T21:47:25.623Z,34.60
2019-03-04T21:49:56.605Z,34.50
2019-03-04T21:52:49.653Z,34.60
2019-03-04T21:55:29.826Z,34.60
2019-03-04T21:57:59.769Z,34.60
2019-03-04T22:00:37.713Z,34.60
2019-03-04T22:03:20.010Z,34.70
2019-03-04T22:05:50.766Z,34.60
2019-03-04T22:08:20.555Z,34.70
2019-03-04T22:10:50.108Z,34.70
2019-03-04T22:13:21.412Z,34.70
2019-03-04T22:15:51.009Z,34.60
2019-03-04T22:18:20.547Z,34.60
2019-03-04T22:20:50.159Z,34.60
2019-03-04T22:23:19.662Z,34.60
2019-03-04T22:25:49.216Z,34.70
2019-03-04T22:28:18.764Z,34.70
2019-03-04T22:30:48.292Z,34.70
2019-03-04T22:33:18.022Z,34.60
2019-03-04T22:35:47.683Z,34.70
2019-03-04T22:38:17.203Z,34.70
2019-03-04T22:40:46.699Z,34.70
2019-03-04T22:43:16.233Z,34.70
2019-03-04T22:45:45.773Z,34.80
2019-03-04T22:48:15.492Z,34.70
2019-03-04T22:50:45.000Z,34.80
2019-03-04T22:53:14.508Z,34.80
2019-03-04T22:55:44.152Z,34.80
2019-03-04T22:58:13.643Z,34.80
2019-03-04T23:01:32.075Z,34.80
2019-03-04T23:04:22.309Z,34.80
2019-03-04T23:07:04.427Z,34.90
2019-03-04T23:09:37.626Z,34.90
2019-03-04T23:12:15.363Z,34.90
2019-03-04T23:14:45.230Z,35.00
2019-03-04T23:17:17.646Z,35.00
2019-03-04T23:19:47.167Z,35.00
2019-03-04T23:22:16.744Z,35.00
2019-03-04T23:24:48.076Z,35.00
2019-03-04T23:27:17.651Z,35.00
2019-03-04T23:29:47.266Z,35.10
2019-03-04T23:32:17.928Z,35.00
2019-03-04T23:34:47.547Z,35.10
2019-03-04T23:37:17.117Z,35.00
2019-03-04T23:39:46.799Z,35.10
2019-03-04T23:42:16.579Z,35.60
2019-03-04T23:44:46.100Z,35.00
2019-03-04T23:47:16.656Z,35.10
2019-03-04T23:49:46.332Z,35.10
2019-03-04T23:52:15.941Z,35.10
2019-03-04T23:54:45.549Z,35.10
2019-03-04T23:57:15.088Z,35.10
2019-03-04T23:59:44.647Z,35.20
